TFM - Tactical Decision Aid (Experimental) INFO Settings
ID: Runway Winds: CIG/VIS Threshold: METAR Board:

KHBG - Hattiesburg-Bobby Chain Muni

Updated at: 0855 UTC 19 Jun 2018
Latest TAF at: 0520 UTC 19 Jun 2018

TAF Board

Time0853Z19/09Z19/10Z19/11Z19/12Z19/13Z19/14Z19/15Z19/16Z19/17Z19/18Z19/19Z19/20Z19/21Z
TypeOBSPRVLPRVLPRVLPRVLPRVLPRVLPRVLPRVLPRVLPRVLPRVLPRVLPRVL
VIS10>6>6>6>6>6>6>6>6>6>6>6>6>6
CIG----------------------------
CoverCLRFEWFEWFEWFEWFEWFEWFEWFEWFEWFEWSCTSCTSCT
FltCatVFRVFRVFRVFRVFRVFRVFRVFRVFRVFRVFRVFRVFRVFR
WX----------------------VCTSVCTSVCTS
WDirVRBVRBVRBVRBVRBVRBVRBVRBVRBVRBVRB606060
WSpd00000000000555
WGst----------------------------
TAF
KHBG 190520Z 1906/2006 00000KT P6SM FEW100
  FM191900 06005KT P6SM VCTS SCT050CB
  FM200000 35004KT P6SM OVC100


METAR Board

Time 18/21Z 18/22Z 18/23Z 19/00Z 19/01Z 19/02Z 19/03Z 19/04Z 19/05Z 19/06Z 19/07Z 19/08Z
Temp75 76 77 77 76 76 75 74 74 73 73 73
Dewpt72 73 74 74 74 75 74 73 73 72 73 73
Altim30.12 30.11 30.10 30.08 30.09 30.09 30.09 30.09 30.09 30.08 30.07 30.06
VIS10 10 10 10 10 10 10 10 10 10 10 10
CIG110 -- -- -- -- -- -- -- -- -- -- --
CoverBKNCLRCLRCLRCLRCLRCLRCLRCLRCLRSCTCLR
FltCatVFRVFRVFRVFRVFRVFRVFRVFRVFRVFRVFRVFR
WX-RA----------------------
WDir3203100000000000
WSpd3 4 0 0 0 0 0 0 0 0 0 0
WGst-- -- -- -- -- -- -- -- -- -- -- --
METAR
KHBG 182053Z AUTO 32003KT 10SM -RA FEW060 BKN110 24/22 A3012 RMK AO2 RAE00B18 SLP197 P0000 60071 T02390222 58006 TSNO
KHBG 182153Z AUTO 31004KT 10SM CLR 24/23 A3011 RMK AO2 RAE26 SLP194 P0000 T02440228 TSNO
KHBG 182253Z AUTO 00000KT 10SM CLR 25/23 A3010 RMK AO2 SLP188 T02500233 TSNO
KHBG 182353Z AUTO 00000KT 10SM CLR 25/23 A3008 RMK AO2 RAB2256E06 SLP183 P0000 60071 T02500233 10322 20233 58014 TSNO
KHBG 190053Z AUTO 00000KT 10SM CLR 24/23 A3009 RMK AO2 SLP184 T02440233 TSNO
KHBG 190153Z AUTO 00000KT 10SM CLR 24/24 A3009 RMK AO2 SLP186 T02440239 TSNO
KHBG 190253Z AUTO 00000KT 10SM CLR 24/23 A3009 RMK AO2 SLP187 T02390233 51003 TSNO
KHBG 190353Z AUTO 00000KT 10SM CLR 23/23 A3009 RMK AO2 SLP187 T02330228 TSNO
KHBG 190453Z AUTO 00000KT 10SM CLR 23/23 A3009 RMK AO2 SLP186 T02330228 TSNO
KHBG 190553Z AUTO 00000KT 10SM CLR 23/22 A3008 RMK AO2 SLP181 T02280222 10250 20228 403220222 58005 TSNO
KHBG 190653Z AUTO 00000KT 10SM SCT120 23/23 A3007 RMK AO2 SLP179 T02280228 TSNO
KHBG 190753Z AUTO 00000KT 10SM CLR 23/23 A3006 RMK AO2 SLP177 T02280228 TSNO

TAF/METAR Board Legend

Potential Impact
  None Marginal Slight Moderate High
Visibility (sm) >5 3≤X≤5 2≤X<3 0.75≤X<2 <0.75
Ceiling (100 ft) >30 10≤X≤30 8≤X<10 2≤X<8 <2
Wind Speed (kt) <10 10≤X<20 20≤X<30 ≥30
Wind Gust (kt) <15 15≤X<25 25≤X<35 ≥35
Weather No Wx Reported VCTS -TS,-FZRA TS,FZRA +TS,+FZRA




Page loaded:  08:55 UTC  |   01:55 AM Pacific  |   02:55 AM Mountain  |   03:55 AM Central  |   04:55 AM Eastern

 

ADVISORIES

FORECASTS

FORECASTS

OBSERVATIONS

USER TOOLS

ABOUT US